Time;durP1;ratioP1;P1;durP2;ratioP2;P2;SDS_P1;SDS_P2;PMS_P1;PMS_P2;Temp;Humidity;BMP_temperature;BMP_pressure;BME280_temperature;BME280_humidity;BME280_pressure;Samples;Min_cycle;Max_cycle;Signal;HPM_P1;HPM_P2
2021/11/03 00:01:29;;;;;;;45.55;22.35;;;;;;;2.38;100.00;99916.59;5131123;27;20363;-79
2021/11/03 00:03:54;;;;;;;36.83;19.52;;;;;;;2.38;100.00;99921.88;5149109;27;20044;-77
2021/11/03 00:06:22;;;;;;;43.45;18.45;;;;;;;2.31;100.00;99911.03;5130558;27;20035;-77
2021/11/03 00:08:49;;;;;;;36.42;19.60;;;;;;;2.33;100.00;99914.38;5113939;27;20034;-77
2021/11/03 00:11:16;;;;;;;39.88;20.05;;;;;;;2.26;100.00;99903.50;5113748;27;20414;-78
2021/11/03 00:13:42;;;;;;;53.40;23.58;;;;;;;2.38;100.00;99937.69;5149065;27;20037;-77
2021/11/03 00:16:08;;;;;;;41.88;20.13;;;;;;;2.46;100.00;99967.69;5114069;27;20570;-77
2021/11/03 00:18:34;;;;;;;50.13;21.50;;;;;;;2.33;100.00;99967.06;5130644;27;20081;-77
2021/11/03 00:21:05;;;;;;;48.13;22.08;;;;;;;2.35;100.00;99978.28;5130809;27;20054;-77
2021/11/03 00:23:31;;;;;;;44.25;21.48;;;;;;;2.35;100.00;99996.75;5148368;27;20158;-77
2021/11/03 00:25:56;;;;;;;60.55;27.55;;;;;;;2.51;100.00;100025.28;5113702;27;20411;-77
2021/11/03 00:28:22;;;;;;;49.00;24.08;;;;;;;2.70;100.00;100043.03;5130892;27;20069;-77
2021/11/03 00:30:52;;;;;;;50.72;23.90;;;;;;;2.61;100.00;100035.88;5130490;27;20046;-77
2021/11/03 00:33:24;;;;;;;50.15;22.98;;;;;;;2.42;100.00;100018.13;5130541;27;20118;-78
2021/11/03 00:35:50;;;;;;;41.78;21.75;;;;;;;2.47;100.00;100023.84;5149204;27;20035;-77
2021/11/03 00:38:15;;;;;;;50.75;23.65;;;;;;;2.46;100.00;100025.66;5130641;27;20030;-77
2021/11/03 00:40:41;;;;;;;58.63;27.85;;;;;;;2.45;100.00;100029.25;5130699;27;20030;-77
2021/11/03 00:43:07;;;;;;;64.63;26.42;;;;;;;2.41;100.00;100027.84;5149110;27;20051;-77
2021/11/03 00:45:33;;;;;;;49.63;22.70;;;;;;;2.41;100.00;100027.84;5130684;27;20038;-77
2021/11/03 00:48:00;;;;;;;54.70;24.85;;;;;;;2.33;100.00;100014.47;5113497;27;20363;-77
2021/11/03 00:50:27;;;;;;;45.70;21.67;;;;;;;2.36;100.00;100019.47;5113710;27;20060;-76
2021/11/03 00:52:53;;;;;;;45.88;20.23;;;;;;;2.25;100.00;100007.22;5113389;27;20062;-77
2021/11/03 00:55:19;;;;;;;43.55;20.75;;;;;;;2.22;100.00;100006.59;5112996;27;20035;-77
2021/11/03 00:57:44;;;;;;;57.22;22.55;;;;;;;2.19;100.00;100004.25;5130267;27;20087;-77
2021/11/03 01:00:13;;;;;;;56.15;23.35;;;;;;;2.17;100.00;99998.25;5130181;27;20380;-76
2021/11/03 01:02:40;;;;;;;56.05;24.45;;;;;;;2.20;100.00;99998.00;5130656;27;20053;-77
2021/11/03 01:05:07;;;;;;;53.08;24.88;;;;;;;2.24;100.00;100013.41;5130176;27;20451;-77
2021/11/03 01:07:33;;;;;;;50.78;22.17;;;;;;;2.19;100.00;100007.69;5148237;27;20130;-77
2021/11/03 01:09:58;;;;;;;128.30;34.63;;;;;;;2.32;100.00;100042.63;5130311;27;20133;-77
2021/11/03 01:12:24;;;;;;;49.33;23.88;;;;;;;2.37;100.00;100058.03;5130210;27;20415;-77
2021/11/03 01:14:49;;;;;;;50.97;21.38;;;;;;;2.21;100.00;100049.72;5148329;27;20026;-77
2021/11/03 01:17:15;;;;;;;53.67;26.20;;;;;;;2.09;100.00;100038.41;5148413;27;20027;-77
2021/11/03 01:19:41;;;;;;;46.45;22.25;;;;;;;2.05;100.00;100034.34;5130090;27;20034;-77
2021/11/03 01:22:07;;;;;;;41.35;20.60;;;;;;;2.00;100.00;100028.63;5148281;27;20068;-77
2021/11/03 01:24:33;;;;;;;39.33;20.33;;;;;;;1.99;100.00;100016.41;5129670;27;20042;-77
2021/11/03 01:26:59;;;;;;;44.83;21.13;;;;;;;1.96;100.00;100006.94;5112875;27;20434;-77
2021/11/03 01:29:24;;;;;;;45.03;21.10;;;;;;;1.99;100.00;100012.00;5129779;27;20038;-78
2021/11/03 01:31:50;;;;;;;42.97;19.95;;;;;;;1.99;100.00;100005.88;5148180;27;20493;-77
2021/11/03 01:34:15;;;;;;;39.47;20.58;;;;;;;1.93;100.00;99985.31;5132361;27;20359;-77
2021/11/03 01:36:41;;;;;;;38.38;18.67;;;;;;;1.87;100.00;99973.47;5116777;27;20023;-77
2021/11/03 01:39:07;;;;;;;42.75;19.70;;;;;;;1.98;100.00;99973.44;5116899;27;20134;-76
2021/11/03 01:41:35;;;;;;;47.97;19.75;;;;;;;2.01;100.00;99964.44;5116726;27;20082;-77
2021/11/03 01:44:09;;;;;;;55.17;23.73;;;;;;;2.03;100.00;99962.53;5133300;27;20030;-77
2021/11/03 01:46:47;;;;;;;252.25;42.53;;;;;;;2.14;100.00;99988.00;5133656;27;20509;-77
2021/11/03 01:49:16;;;;;;;54.78;24.02;;;;;;;2.12;100.00;99998.63;5133098;27;20031;-76
2021/11/03 01:51:51;;;;;;;166.67;30.47;;;;;;;2.05;100.00;100000.94;5133525;27;20034;-76
2021/11/03 01:54:35;;;;;;;152.50;30.73;;;;;;;1.99;100.00;100009.34;5115899;27;20272;-77
2021/11/03 01:57:07;;;;;;;438.67;48.95;;;;;;;2.01;100.00;100025.00;5133380;27;20399;-76
2021/11/03 01:59:37;;;;;;;52.85;23.15;;;;;;;1.90;100.00;100023.25;5133107;27;20031;-76
2021/11/03 02:02:05;;;;;;;52.72;23.52;;;;;;;1.77;100.00;100006.78;5116396;27;20174;-77
2021/11/03 02:04:31;;;;;;;53.55;23.20;;;;;;;1.69;100.00;100002.97;5132714;27;20034;-76
2021/11/03 02:06:59;;;;;;;;;;;;;;;1.72;100.00;100006.31;5116188;27;20401;-77
2021/11/03 02:09:25;;;;;;;43.30;20.52;;;;;;;1.69;100.00;99997.72;5133099;27;19922;-76
2021/11/03 02:11:51;;;;;;;51.72;23.33;;;;;;;1.84;100.00;100019.31;5114760;27;20045;-76
2021/11/03 02:14:17;;;;;;;48.75;23.33;;;;;;;1.84;100.00;100029.84;5115564;27;20083;-76
2021/11/03 02:16:48;;;;;;;59.00;25.73;;;;;;;1.84;100.00;100034.28;5132692;27;20358;-76
2021/11/03 02:19:21;;;;;;;43.63;21.80;;;;;;;1.69;100.00;100018.75;5132988;27;20041;-76
2021/11/03 02:22:16;;;;;;;46.83;21.27;;;;;;;1.75;100.00;100019.22;5132903;27;20451;-76
2021/11/03 02:25:07;;;;;;;470.98;53.40;;;;;;;1.77;100.00;100018.13;5125209;27;20049;-76
2021/11/03 02:27:38;;;;;;;703.80;75.75;;;;;;;1.92;100.00;100045.03;5132645;27;20032;-76
2021/11/03 02:30:07;;;;;;;57.47;25.40;;;;;;;1.91;100.00;100045.97;5151003;27;20035;-76
2021/11/03 02:32:33;;;;;;;58.35;24.55;;;;;;;1.76;100.00;100031.44;5132837;27;20125;-76
2021/11/03 02:34:59;;;;;;;128.98;34.03;;;;;;;1.71;100.00;100033.59;5132425;27;20094;-76
2021/11/03 02:37:28;;;;;;;123.45;32.22;;;;;;;1.87;100.00;100055.09;5150535;27;20118;-76
2021/11/03 02:40:25;;;;;;;56.10;24.35;;;;;;;1.83;100.00;100056.31;5132587;27;20367;-76
2021/11/03 02:42:55;;;;;;;56.70;23.98;;;;;;;1.77;100.00;100062.06;5115202;27;20134;-76
2021/11/03 02:45:29;;;;;;;56.53;24.48;;;;;;;1.79;100.00;100062.78;5131457;27;20083;-76
2021/11/03 02:47:56;;;;;;;58.65;22.90;;;;;;;1.73;100.00;100065.88;5150454;27;20486;-76
2021/11/03 02:50:21;;;;;;;47.10;20.95;;;;;;;1.65;100.00;100051.53;5132078;27;20034;-76
2021/11/03 02:52:47;;;;;;;50.78;23.25;;;;;;;1.69;100.00;100057.41;5132331;27;20033;-76
2021/11/03 02:55:12;;;;;;;38.23;19.00;;;;;;;1.65;100.00;100046.28;5114894;27;20058;-76
2021/11/03 02:57:56;;;;;;;52.30;22.10;;;;;;;1.74;100.00;100059.69;5150642;27;20260;-76
2021/11/03 03:00:25;;;;;;;49.17;20.52;;;;;;;1.79;100.00;100068.88;5131983;27;20027;-76
2021/11/03 03:02:51;;;;;;;63.15;25.42;;;;;;;1.87;100.00;100076.13;5115049;27;20022;-76
2021/11/03 03:05:17;;;;;;;;;;;;;;;2.06;100.00;100100.06;5132466;27;20038;-76
2021/11/03 03:07:43;;;;;;;529.97;70.82;;;;;;;2.12;100.00;100106.59;5114518;27;19984;-76
2021/11/03 03:10:09;;;;;;;501.30;57.65;;;;;;;2.20;100.00;100117.38;5131788;27;20412;-76
2021/11/03 03:12:36;;;;;;;64.30;25.20;;;;;;;2.20;100.00;100113.88;5131740;27;20031;-76
2021/11/03 03:15:02;;;;;;;61.25;24.30;;;;;;;2.11;100.00;100128.66;5131620;27;20038;-75
2021/11/03 03:17:29;;;;;;;70.88;25.55;;;;;;;2.01;100.00;100114.53;5114864;27;20058;-75
2021/11/03 03:19:56;;;;;;;61.80;24.08;;;;;;;2.08;100.00;100129.72;5131696;27;20449;-75
2021/11/03 03:22:21;;;;;;;197.55;42.15;;;;;;;2.10;100.00;100138.31;5131580;27;20106;-76
2021/11/03 03:24:52;;;;;;;60.13;23.27;;;;;;;2.07;100.00;100135.94;5115051;27;20447;-76
2021/11/03 03:27:18;;;;;;;74.53;25.42;;;;;;;2.11;100.00;100147.91;5131628;27;20094;-76
2021/11/03 03:29:45;;;;;;;65.82;26.73;;;;;;;2.13;100.00;100144.31;5114436;27;20031;-76
2021/11/03 03:32:12;;;;;;;68.78;29.67;;;;;;;2.08;100.00;100127.09;5131659;27;20062;-76
2021/11/03 03:34:38;;;;;;;99.88;29.58;;;;;;;2.16;100.00;100126.47;5131251;27;20031;-76
2021/11/03 03:37:04;;;;;;;57.40;25.27;;;;;;;2.18;100.00;100126.34;5131285;27;20447;-76
2021/11/03 03:39:33;;;;;;;139.93;29.35;;;;;;;2.18;100.00;100113.16;5131352;27;20030;-76
2021/11/03 03:42:05;;;;;;;;;;;;;;;2.20;100.00;100109.47;5131761;27;20121;-76
2021/11/03 03:44:30;;;;;;;440.17;45.25;;;;;;;2.19;100.00;100096.41;5149297;27;19915;-76
2021/11/03 03:46:56;;;;;;;70.07;25.88;;;;;;;2.17;100.00;100082.53;5131092;27;20090;-76
2021/11/03 03:49:22;;;;;;;108.95;28.80;;;;;;;2.20;100.00;100084.91;5131082;27;20033;-77
2021/11/03 03:51:48;;;;;;;193.88;33.90;;;;;;;2.26;100.00;100093.16;5113750;27;20063;-76
2021/11/03 03:54:15;;;;;;;56.88;25.10;;;;;;;2.27;100.00;100104.53;5113659;27;20471;-76
2021/11/03 03:56:41;;;;;;;54.78;24.95;;;;;;;2.26;100.00;100113.41;5130738;27;20428;-76
2021/11/03 03:59:07;;;;;;;;;;;;;;;2.26;100.00;100123.94;5114539;27;20030;-76
2021/11/03 04:01:35;;;;;;;57.33;24.90;;;;;;;2.25;100.00;100123.09;5130999;27;19914;-76
2021/11/03 04:04:03;;;;;;;59.17;26.27;;;;;;;2.23;100.00;100129.47;5113816;27;20034;-76
2021/11/03 04:06:29;;;;;;;67.72;26.55;;;;;;;2.24;100.00;100131.13;5113261;27;20079;-76
2021/11/03 04:08:59;;;;;;;59.65;25.45;;;;;;;2.23;100.00;100129.47;5130736;27;20122;-76
2021/11/03 04:11:25;;;;;;;61.80;27.40;;;;;;;2.26;100.00;100145.00;5130714;27;20657;-76
2021/11/03 04:13:50;;;;;;;48.80;22.48;;;;;;;2.22;100.00;100138.31;5113306;27;20079;-76
2021/11/03 04:16:16;;;;;;;48.13;22.33;;;;;;;2.32;100.00;100147.16;5130728;27;20182;-76
2021/11/03 04:18:42;;;;;;;50.60;23.35;;;;;;;2.29;100.00;100139.47;5130509;27;20375;-76
2021/11/03 04:21:08;;;;;;;51.72;23.52;;;;;;;2.28;100.00;100145.72;5130645;27;20041;-76
2021/11/03 04:23:35;;;;;;;46.28;20.63;;;;;;;2.26;100.00;100134.47;5113251;27;20027;-76
2021/11/03 04:26:00;;;;;;;;;;;;;;;2.38;100.00;100151.91;5131091;27;20141;-76
2021/11/03 04:28:27;;;;;;;43.42;21.33;;;;;;;2.34;100.00;100145.22;5113662;27;20312;-77
2021/11/03 04:30:53;;;;;;;44.83;23.35;;;;;;;2.40;100.00;100150.00;5130712;27;20065;-76
2021/11/03 04:33:20;;;;;;;;;;;;;;;2.43;100.00;100151.53;5130829;27;20571;-76
2021/11/03 04:36:05;;;;;;;44.40;21.00;;;;;;;2.42;100.00;100144.59;5149095;27;19926;-76
2021/11/03 04:38:52;;;;;;;43.25;20.13;;;;;;;2.43;100.00;100147.09;5133903;27;20490;-76
2021/11/03 04:41:55;;;;;;;46.47;20.17;;;;;;;2.45;100.00;100144.34;5133584;27;20073;-76
2021/11/03 04:50:30;;;;;;;48.07;21.53;;;;;;;2.38;100.00;100117.66;5130046;27;20082;-76
2021/11/03 04:53:35;;;;;;;39.90;18.33;;;;;;;2.40;100.00;100113.09;5132584;27;20049;-76
2021/11/03 05:02:32;;;;;;;51.35;22.58;;;;;;;2.61;100.00;100109.69;5148763;27;20057;-76
2021/11/03 05:05:01;;;;;;;53.35;23.63;;;;;;;2.67;100.00;100124.97;5130025;27;20471;-77
2021/11/03 05:07:47;;;;;;;;;;;;;;;2.69;100.00;100126.53;5130112;27;20385;-76
2021/11/03 05:13:36;;;;;;;53.08;22.80;;;;;;;2.61;100.00;100101.78;5152447;27;20061;-76
2021/11/03 05:16:02;;;;;;;43.13;22.48;;;;;;;2.61;100.00;100102.59;5134018;27;20031;-76
2021/11/03 05:18:28;;;;;;;46.03;23.65;;;;;;;2.67;100.00;100117.91;5116658;27;20090;-75
2021/11/03 05:20:55;;;;;;;46.92;22.27;;;;;;;2.72;100.00;100114.91;5116910;27;20027;-76
2021/11/03 05:23:25;;;;;;;55.17;25.03;;;;;;;2.75;100.00;100114.63;5133670;27;20027;-76
2021/11/03 05:25:52;;;;;;;47.45;21.45;;;;;;;2.77;100.00;100111.88;5134012;27;20288;-76
2021/11/03 05:28:17;;;;;;;45.80;20.30;;;;;;;2.82;100.00;100120.25;5152054;27;20106;-76
2021/11/03 05:30:43;;;;;;;39.72;19.75;;;;;;;2.85;100.00;100118.16;5151584;27;20141;-76
2021/11/03 05:33:09;;;;;;;39.50;19.37;;;;;;;2.86;100.00;100130.41;5116536;27;20342;-76
2021/11/03 05:35:34;;;;;;;37.08;17.77;;;;;;;2.85;100.00;100127.88;5151716;27;20034;-77
2021/11/03 05:38:00;;;;;;;57.40;25.57;;;;;;;2.89;100.00;100145.13;5116462;27;20037;-76
2021/11/03 05:40:27;;;;;;;37.83;18.45;;;;;;;2.94;100.00;100167.50;5133645;27;20117;-76
2021/11/03 05:42:53;;;;;;;47.35;21.00;;;;;;;2.89;100.00;100151.22;5133692;27;20372;-76
2021/11/03 05:45:19;;;;;;;49.67;23.42;;;;;;;2.86;100.00;100148.03;5133572;27;20042;-76
2021/11/03 05:47:46;;;;;;;62.92;27.98;;;;;;;3.09;100.00;100178.59;5133524;27;20034;-76
2021/11/03 05:50:16;;;;;;;62.10;27.98;;;;;;;3.17;100.00;100188.50;5151699;27;20026;-77
2021/11/03 05:52:42;;;;;;;49.47;21.80;;;;;;;3.11;100.00;100189.84;5133558;27;20038;-77
2021/11/03 05:55:07;;;;;;;46.97;22.07;;;;;;;3.08;100.00;100182.19;5133308;27;20042;-76
2021/11/03 05:57:35;;;;;;;51.33;23.90;;;;;;;2.96;100.00;100155.03;5133709;27;20054;-77
2021/11/03 06:00:07;;;;;;;43.42;20.45;;;;;;;2.88;100.00;100140.81;5151574;27;20061;-77
2021/11/03 06:02:37;;;;;;;42.20;20.73;;;;;;;2.82;100.00;100126.34;5151495;27;20112;-77
2021/11/03 06:05:03;;;;;;;47.93;23.20;;;;;;;2.91;100.00;100124.75;5133338;27;20034;-76
2021/11/03 06:07:29;;;;;;;55.33;22.95;;;;;;;2.81;100.00;100103.59;5132814;27;20303;-76
2021/11/03 06:09:55;;;;;;;43.80;19.63;;;;;;;2.77;100.00;100091.63;5115947;27;20035;-76
2021/11/03 06:12:22;;;;;;;40.25;19.90;;;;;;;2.62;100.00;100077.94;5132936;27;20448;-77
2021/11/03 06:14:47;;;;;;;51.38;23.85;;;;;;;2.82;100.00;100115.78;5133047;27;20038;-76
2021/11/03 06:17:13;;;;;;;46.40;21.30;;;;;;;2.88;100.00;100115.28;5133151;27;20187;-77
2021/11/03 06:19:39;;;;;;;;;;;;;;;2.89;100.00;100122.22;5132022;27;20441;-76
2021/11/03 06:22:04;;;;;;;38.83;18.40;;;;;;;2.80;100.00;100112.44;5151105;27;19965;-77
2021/11/03 06:24:32;;;;;;;40.03;19.42;;;;;;;2.73;100.00;100092.84;5150959;27;20448;-76
2021/11/03 06:26:58;;;;;;;43.33;19.85;;;;;;;2.72;100.00;100078.81;5133000;27;20035;-77
2021/11/03 06:29:25;;;;;;;44.38;19.85;;;;;;;2.75;100.00;100081.19;5133040;27;20042;-77
2021/11/03 06:31:50;;;;;;;48.90;22.20;;;;;;;2.90;100.00;100102.81;5132682;27;20447;-79
2021/11/03 06:34:17;;;;;;;;;;;;;;;3.01;100.00;100123.00;5151075;27;20476;-76
2021/11/03 06:36:42;;;;;;;43.10;19.52;;;;;;;3.06;100.00;100139.25;5132964;27;19914;-77
2021/11/03 06:39:10;;;;;;;33.50;17.80;;;;;;;3.12;100.00;100154.59;5132783;27;20125;-77
2021/11/03 06:41:37;;;;;;;38.92;19.83;;;;;;;3.17;100.00;100162.13;5132560;27;20113;-77
2021/11/03 06:44:04;;;;;;;34.42;17.65;;;;;;;3.33;100.00;100188.88;5132569;27;20478;-77
2021/11/03 06:46:30;;;;;;;36.28;19.35;;;;;;;3.48;100.00;100193.81;5132924;27;20099;-77
2021/11/03 06:48:56;;;;;;;35.92;19.27;;;;;;;3.59;100.00;100193.75;5150763;27;20042;-77
2021/11/03 06:51:22;;;;;;;34.75;17.33;;;;;;;3.76;100.00;100211.59;5132457;27;20074;-78
2021/11/03 06:53:48;;;;;;;37.83;19.58;;;;;;;3.85;100.00;100203.88;5150445;27;20026;-77
2021/11/03 06:56:14;;;;;;;47.13;22.33;;;;;;;4.04;100.00;100214.50;5132845;27;20125;-77
2021/11/03 06:58:39;;;;;;;37.83;19.30;;;;;;;4.23;100.00;100225.13;5132804;27;20608;-78
2021/11/03 07:01:07;;;;;;;39.20;20.63;;;;;;;4.44;100.00;100242.72;5115816;27;20034;-79
2021/11/03 07:03:33;;;;;;;40.80;21.33;;;;;;;4.58;100.00;100231.78;5132366;27;20479;-79
2021/11/03 07:06:00;;;;;;;40.08;20.92;;;;;;;4.80;100.00;100237.78;5133090;27;20106;-79
2021/11/03 07:08:25;;;;;;;41.40;21.05;;;;;;;4.89;100.00;100226.38;5115274;27;20129;-79
2021/11/03 07:10:55;;;;;;;43.22;21.52;;;;;;;4.76;100.00;100186.16;5132615;27;20046;-78
2021/11/03 07:13:23;;;;;;;52.97;24.75;;;;;;;4.76;100.00;100176.41;5132447;27;20508;-77
2021/11/03 07:15:49;;;;;;;52.42;24.45;;;;;;;4.90;100.00;100191.03;5132263;27;20038;-78
2021/11/03 07:18:15;;;;;;;49.40;24.65;;;;;;;4.95;100.00;100190.59;5115178;27;20060;-79
2021/11/03 07:20:42;;;;;;;;;;;;;;;5.29;100.00;100218.31;5150986;27;20041;-79
2021/11/03 07:23:09;;;;;;;47.45;22.85;;;;;;;5.57;100.00;100215.75;5132037;27;19975;-79
2021/11/03 07:25:35;;;;;;;45.85;23.25;;;;;;;5.73;100.00;100204.53;5114478;27;20034;-80
2021/11/03 07:28:00;;;;;;;52.03;24.85;;;;;;;5.86;100.00;100177.72;5114917;27;20044;-80
2021/11/03 07:30:29;;;;;;;47.07;23.00;;;;;;;5.87;100.00;100132.53;5150200;27;20363;-80
2021/11/03 07:32:55;;;;;;;44.97;21.55;;;;;;;5.94;100.00;100108.97;5132239;27;20101;-80
2021/11/03 07:35:21;;;;;;;41.33;20.83;;;;;;;5.92;100.00;100082.59;5131683;27;20058;-81
2021/11/03 07:37:46;;;;;;;41.85;21.13;;;;;;;5.93;100.00;100062.25;5150472;27;20426;-81
2021/11/03 07:40:17;;;;;;;45.47;21.43;;;;;;;5.85;100.00;100033.84;5130952;27;20029;-81
2021/11/03 07:42:42;;;;;;;44.47;22.33;;;;;;;5.76;100.00;100021.50;5148956;27;20062;-81
2021/11/03 07:45:09;;;;;;;40.22;21.60;;;;;;;6.07;100.00;100037.06;5114069;27;20129;-82
2021/11/03 07:47:35;;;;;;;43.40;22.48;;;;;;;6.12;100.00;100032.16;5131327;27;20122;-82
2021/11/03 07:50:01;;;;;;;44.92;23.33;;;;;;;6.04;100.00;100010.84;5113744;27;20058;-81
2021/11/03 07:52:27;;;;;;;46.22;21.55;;;;;;;6.06;100.00;100006.25;5149204;27;20046;-82
2021/11/03 07:54:53;;;;;;;43.50;22.60;;;;;;;6.00;100.00;99996.25;5149418;27;20030;-81
2021/11/03 07:57:19;;;;;;;41.35;20.80;;;;;;;6.06;100.00;99993.00;5132290;27;20103;-82
2021/11/03 07:59:45;;;;;;;47.60;22.63;;;;;;;6.07;100.00;99994.69;5132217;27;20109;-80
2021/11/03 08:02:10;;;;;;;38.80;20.83;;;;;;;6.05;100.00;99997.47;5150252;27;20547;-81
2021/11/03 08:04:36;;;;;;;65.50;27.03;;;;;;;6.07;100.00;100008.75;5150219;27;20057;-81
2021/11/03 08:07:02;;;;;;;62.67;26.00;;;;;;;6.07;100.00;100015.88;5131987;27;20034;-80
2021/11/03 08:09:27;;;;;;;58.55;27.70;;;;;;;6.11;100.00;100025.16;5131961;27;20279;-80
2021/11/03 08:11:58;;;;;;;57.42;24.77;;;;;;;6.20;100.00;100050.75;5132246;27;20513;-81
2021/11/03 08:14:26;;;;;;;56.92;25.38;;;;;;;6.31;100.00;100079.72;5132016;27;20440;-81
2021/11/03 08:17:00;;;;;;;55.00;25.88;;;;;;;6.41;100.00;100086.75;5132120;27;20035;-81
2021/11/03 08:19:38;;;;;;;50.80;25.55;;;;;;;6.54;100.00;100100.47;5114321;27;20041;-81
2021/11/03 08:22:05;;;;;;;49.15;22.33;;;;;;;6.30;100.00;100067.44;5150322;27;20316;-81
2021/11/03 08:24:31;;;;;;;45.30;22.55;;;;;;;6.36;100.00;100083.72;5130535;27;20068;-81
2021/11/03 08:26:57;;;;;;;47.60;23.13;;;;;;;6.26;100.00;100078.50;5149420;27;20117;-81
2021/11/03 08:29:23;;;;;;;42.28;20.95;;;;;;;6.30;100.00;100109.88;5130995;27;20053;-82
2021/11/03 08:31:52;;;;;;;45.78;23.35;;;;;;;6.35;100.00;100122.69;5114302;27;20026;-82
2021/11/03 08:34:18;;;;;;;44.67;22.40;;;;;;;6.47;100.00;100133.91;5131158;27;20373;-83
2021/11/03 08:36:44;;;;;;;44.03;21.95;;;;;;;6.58;100.00;100149.59;5114202;27;20026;-82
2021/11/03 08:39:10;;;;;;;44.45;21.88;;;;;;;6.50;100.00;100133.59;5131672;27;20045;-84
2021/11/03 08:41:36;;;;;;;44.83;21.10;;;;;;;7.37;100.00;100206.28;5131909;27;20038;-84
2021/11/03 08:44:02;;;;;;;36.78;18.83;;;;;;;7.27;100.00;100136.53;5134007;27;20132;-84
2021/11/03 08:46:28;;;;;;;42.60;20.52;;;;;;;7.28;100.00;100101.00;5136003;27;20041;-85
2021/11/03 08:48:59;;;;;;;38.33;21.50;;;;;;;8.07;100.00;100121.13;5136077;27;20042;-85
2021/11/03 08:51:30;;;;;;;34.65;17.27;;;;;;;9.25;100.00;100081.81;5135700;27;20031;-83
2021/11/03 08:53:56;;;;;;;30.08;17.25;;;;;;;10.25;95.59;100024.34;5135460;27;20035;-84
2021/11/03 08:56:22;;;;;;;;;;;;;;;10.89;90.83;99984.78;5154100;27;20158;-84
2021/11/03 08:58:48;;;;;;;;;;;;;;;11.28;83.93;99916.84;5136585;27;20494;-84
2021/11/03 09:01:13;;;;;;;;;;;;;;;11.89;82.14;99918.38;5135859;27;19918;-83
2021/11/03 09:03:40;;;;;;;36.43;20.70;;;;;;;12.01;80.82;99906.97;5135347;27;20251;-85
2021/11/03 09:06:07;;;;;;;35.00;20.20;;;;;;;11.97;78.35;99864.75;5134701;27;20030;-84
2021/11/03 09:08:33;;;;;;;27.65;16.40;;;;;;;11.22;79.39;99856.16;5118519;27;20126;-87
2021/11/03 09:11:03;;;;;;;24.98;15.90;;;;;;;10.40;80.77;99841.16;5118670;27;20059;-86
2021/11/03 09:13:30;;;;;;;32.00;17.80;;;;;;;9.60;84.97;99882.50;5153573;27;20039;-87
2021/11/03 09:15:57;;;;;;;39.03;22.90;;;;;;;10.48;85.06;99937.13;5135455;27;20090;-83
2021/11/03 09:18:22;;;;;;;;;;;;;;;11.57;81.31;99944.56;5136030;27;20098;-86
2021/11/03 09:20:48;;;;;;;;;;;;;;;11.60;79.93;99914.75;5135555;27;20406;-86
2021/11/03 09:23:15;;;;;;;29.65;18.63;;;;;;;12.40;76.63;99927.03;5135181;27;19979;-85
2021/11/03 09:25:42;;;;;;;36.90;22.40;;;;;;;12.60;74.67;99919.16;5153839;27;20022;-86
2021/11/03 09:28:07;;;;;;;;;;;;;;;12.87;72.98;99898.72;5119028;27;20355;-86
2021/11/03 09:30:34;;;;;;;;;;;;;;;13.02;74.18;99921.88;5135523;27;20002;-84
2021/11/03 09:33:02;;;;;;;24.27;15.85;;;;;;;12.24;73.50;99852.38;5135024;27;19911;-86
2021/11/03 09:35:31;;;;;;;27.20;16.75;;;;;;;10.36;78.84;99823.84;5134597;27;20153;-83
2021/11/03 09:37:58;;;;;;;29.35;16.90;;;;;;;10.25;82.22;99874.97;5152904;27;20034;-86
2021/11/03 09:40:25;;;;;;;;;;;;;;;10.33;82.74;99896.28;5135335;27;20466;-85
2021/11/03 09:42:52;;;;;;;27.73;17.92;;;;;;;10.91;82.17;99931.16;5134690;27;20424;-85
2021/11/03 09:45:21;;;;;;;29.42;17.25;;;;;;;10.68;80.94;99872.56;5152788;27;20019;-84
2021/11/03 09:48:18;;;;;;;34.97;21.90;;;;;;;11.40;80.57;99934.09;5134604;27;20041;-84
2021/11/03 09:50:49;;;;;;;32.38;18.38;;;;;;;11.49;79.55;99908.06;5134235;27;20039;-84
2021/11/03 09:53:23;;;;;;;29.70;18.55;;;;;;;11.08;78.82;99852.50;5152469;27;20084;-84
2021/11/03 09:55:50;;;;;;;30.55;17.77;;;;;;;10.74;80.68;99853.09;5134221;27;20039;-83
2021/11/03 09:58:33;;;;;;;30.80;18.08;;;;;;;10.93;82.33;99911.31;5152607;27;20023;-84
2021/11/03 10:01:08;;;;;;;32.03;19.23;;;;;;;10.81;81.11;99870.03;5134440;27;20515;-84
2021/11/03 10:04:13;;;;;;;29.48;17.67;;;;;;;11.86;78.29;99910.69;5133389;27;20039;-83
2021/11/03 10:06:52;;;;;;;30.83;19.93;;;;;;;10.66;79.07;99805.16;5108547;27;20499;-82
2021/11/03 10:09:17;;;;;;;32.20;20.15;;;;;;;9.50;84.44;99834.78;5133812;27;20468;-85
2021/11/03 10:11:49;;;;;;;35.92;21.73;;;;;;;9.78;84.83;99878.69;5133742;27;20083;-83
2021/11/03 10:14:15;;;;;;;33.35;20.08;;;;;;;11.45;81.75;99946.03;5133261;27;20053;-82
2021/11/03 10:16:47;;;;;;;32.75;20.58;;;;;;;12.43;76.32;99920.47;5133479;27;20035;-82
2021/11/03 10:19:13;;;;;;;37.22;21.92;;;;;;;10.72;78.26;99805.25;5133581;27;20342;-86
2021/11/03 10:21:55;;;;;;;30.80;19.57;;;;;;;11.93;77.28;99891.03;5133622;27;20051;-81
2021/11/03 10:24:21;;;;;;;32.83;21.33;;;;;;;11.07;78.32;99858.84;5151251;27;20035;-81
2021/11/03 10:26:57;;;;;;;37.90;21.17;;;;;;;11.58;75.39;99834.75;5133098;27;20035;-81
2021/11/03 10:29:35;;;;;;;36.05;22.70;;;;;;;10.93;77.70;99812.50;5133133;27;20039;-80
2021/11/03 10:32:20;;;;;;;30.25;20.63;;;;;;;11.44;76.18;99862.38;5133127;27;20080;-80
2021/11/03 10:34:51;;;;;;;31.55;20.20;;;;;;;12.00;75.23;99861.69;5151197;27;20101;-81
2021/11/03 10:37:16;;;;;;;31.77;20.10;;;;;;;10.70;77.45;99782.41;5150817;27;20080;-81
2021/11/03 10:40:22;;;;;;;29.83;20.60;;;;;;;10.28;79.23;99802.59;5132571;27;20062;-81
2021/11/03 10:42:58;;;;;;;36.80;21.65;;;;;;;9.98;80.85;99801.72;5101843;27;20042;-82
2021/11/03 10:45:35;;;;;;;34.63;21.35;;;;;;;9.99;80.55;99801.53;5133287;27;20492;-80
2021/11/03 10:48:07;;;;;;;29.45;19.20;;;;;;;9.92;82.10;99811.25;5133029;27;20042;-83
2021/11/03 10:50:40;;;;;;;33.60;21.13;;;;;;;10.11;81.64;99834.75;5132444;27;20049;-83
2021/11/03 10:53:17;;;;;;;32.80;20.83;;;;;;;10.34;81.89;99853.38;5132545;27;20053;-82
2021/11/03 10:55:57;;;;;;;32.05;19.48;;;;;;;10.73;79.51;99849.63;5133236;27;20036;-81
2021/11/03 10:58:37;;;;;;;31.98;18.80;;;;;;;11.25;78.73;99881.69;5152237;27;20470;-82
2021/11/03 11:01:06;;;;;;;28.77;17.83;;;;;;;12.06;74.04;99868.94;5134128;27;20042;-82
2021/11/03 11:03:41;;;;;;;26.48;16.77;;;;;;;12.93;71.60;99886.38;5151712;27;20019;-81
2021/11/03 11:06:14;;;;;;;25.63;17.25;;;;;;;11.49;72.16;99762.91;5115144;27;20034;-79
2021/11/03 11:08:50;;;;;;;28.75;18.58;;;;;;;10.80;75.70;99774.94;5133671;27;20076;-82
2021/11/03 11:11:18;;;;;;;30.15;17.85;;;;;;;11.33;76.03;99850.34;5133375;27;20041;-82
2021/11/03 11:13:53;;;;;;;29.23;18.95;;;;;;;10.86;75.55;99782.19;5151786;27;20098;-82
2021/11/03 11:16:29;;;;;;;29.38;18.52;;;;;;;11.85;74.93;99875.13;5133423;27;20459;-81
2021/11/03 11:19:04;;;;;;;24.25;15.20;;;;;;;12.45;72.53;99868.41;5133430;27;20041;-80
2021/11/03 11:21:39;;;;;;;26.63;16.05;;;;;;;13.21;67.98;99840.75;5133596;27;20086;-82
2021/11/03 11:24:20;;;;;;;24.88;15.45;;;;;;;12.25;69.11;99782.63;5133009;27;20054;-83
2021/11/03 11:27:03;;;;;;;23.25;15.32;;;;;;;12.79;68.53;99826.56;5133050;27;20037;-82
2021/11/03 11:29:52;;;;;;;26.27;16.50;;;;;;;13.79;67.27;99861.72;5151356;27;20035;-82
2021/11/03 11:32:37;;;;;;;20.40;14.70;;;;;;;14.40;65.51;99867.88;5132952;27;20137;-82
2021/11/03 11:35:24;;;;;;;28.27;17.20;;;;;;;14.58;64.69;99835.84;5132890;27;20103;-82
2021/11/03 11:38:09;;;;;;;26.08;16.08;;;;;;;15.27;62.75;99849.66;5151126;27;20034;-83
2021/11/03 11:40:54;;;;;;;18.38;13.30;;;;;;;13.71;63.12;99738.53;5133056;27;20371;-82
2021/11/03 11:43:29;;;;;;;20.65;14.18;;;;;;;11.87;67.74;99698.38;5115451;27;20053;-81